sensor_id;sensor_type;location;lat;lon;timestamp;P1;durP1;ratioP1;P2;durP2;ratioP2
70052;SDS011;57398;52.032;4.376;2023-04-03T00:01:59;4.00;;;1.80;;
70052;SDS011;57398;52.032;4.376;2023-04-03T00:04:48;5.55;;;1.83;;
70052;SDS011;57398;52.032;4.376;2023-04-03T00:07:36;4.85;;;2.10;;
70052;SDS011;57398;52.032;4.376;2023-04-03T00:10:24;4.43;;;1.67;;
70052;SDS011;57398;52.032;4.376;2023-04-03T00:13:12;4.28;;;1.70;;
70052;SDS011;57398;52.032;4.376;2023-04-03T00:16:01;4.88;;;2.05;;
70052;SDS011;57398;52.032;4.376;2023-04-03T00:18:51;6.47;;;2.28;;
70052;SDS011;57398;52.032;4.376;2023-04-03T00:21:39;4.75;;;2.17;;
70052;SDS011;57398;52.032;4.376;2023-04-03T00:24:28;5.40;;;1.93;;
70052;SDS011;57398;52.032;4.376;2023-04-03T00:27:16;4.22;;;2.10;;
70052;SDS011;57398;52.032;4.376;2023-04-03T00:30:05;4.47;;;1.90;;
70052;SDS011;57398;52.032;4.376;2023-04-03T00:32:54;5.25;;;2.10;;
70052;SDS011;57398;52.032;4.376;2023-04-03T00:35:44;4.80;;;2.00;;
70052;SDS011;57398;52.032;4.376;2023-04-03T00:38:32;4.53;;;2.00;;
70052;SDS011;57398;52.032;4.376;2023-04-03T00:41:21;4.63;;;1.67;;
70052;SDS011;57398;52.032;4.376;2023-04-03T00:44:19;5.57;;;2.00;;
70052;SDS011;57398;52.032;4.376;2023-04-03T00:47:09;5.10;;;1.83;;
70052;SDS011;57398;52.032;4.376;2023-04-03T00:49:59;5.75;;;2.08;;
70052;SDS011;57398;52.032;4.376;2023-04-03T00:52:50;4.43;;;1.90;;
70052;SDS011;57398;52.032;4.376;2023-04-03T00:55:38;5.03;;;2.00;;
70052;SDS011;57398;52.032;4.376;2023-04-03T00:58:28;6.85;;;1.80;;
70052;SDS011;57398;52.032;4.376;2023-04-03T01:01:22;5.05;;;2.03;;
70052;SDS011;57398;52.032;4.376;2023-04-03T01:04:24;6.22;;;1.85;;
70052;SDS011;57398;52.032;4.376;2023-04-03T01:07:15;4.70;;;2.00;;
70052;SDS011;57398;52.032;4.376;2023-04-03T01:10:09;4.60;;;2.08;;
70052;SDS011;57398;52.032;4.376;2023-04-03T01:13:00;6.18;;;1.95;;
70052;SDS011;57398;52.032;4.376;2023-04-03T01:15:48;5.38;;;1.83;;
70052;SDS011;57398;52.032;4.376;2023-04-03T01:18:37;5.55;;;1.98;;
70052;SDS011;57398;52.032;4.376;2023-04-03T01:24:51;6.13;;;2.28;;
70052;SDS011;57398;52.032;4.376;2023-04-03T01:27:41;4.70;;;1.90;;
70052;SDS011;57398;52.032;4.376;2023-04-03T01:30:30;4.35;;;2.10;;
70052;SDS011;57398;52.032;4.376;2023-04-03T01:33:22;5.40;;;2.40;;
70052;SDS011;57398;52.032;4.376;2023-04-03T01:36:15;5.10;;;2.00;;
70052;SDS011;57398;52.032;4.376;2023-04-03T01:39:04;5.97;;;2.30;;
70052;SDS011;57398;52.032;4.376;2023-04-03T01:41:53;4.93;;;2.20;;
70052;SDS011;57398;52.032;4.376;2023-04-03T01:44:41;5.25;;;2.00;;
70052;SDS011;57398;52.032;4.376;2023-04-03T01:47:29;4.68;;;2.00;;
70052;SDS011;57398;52.032;4.376;2023-04-03T01:50:19;5.70;;;2.03;;
70052;SDS011;57398;52.032;4.376;2023-04-03T01:53:07;4.90;;;2.20;;
70052;SDS011;57398;52.032;4.376;2023-04-03T01:55:57;3.97;;;2.03;;
70052;SDS011;57398;52.032;4.376;2023-04-03T01:58:45;4.53;;;1.92;;
70052;SDS011;57398;52.032;4.376;2023-04-03T02:01:34;6.63;;;2.20;;
70052;SDS011;57398;52.032;4.376;2023-04-03T02:04:23;5.77;;;2.10;;
70052;SDS011;57398;52.032;4.376;2023-04-03T02:07:12;4.90;;;2.20;;
70052;SDS011;57398;52.032;4.376;2023-04-03T02:10:01;4.50;;;2.03;;
70052;SDS011;57398;52.032;4.376;2023-04-03T02:12:50;5.20;;;1.65;;
70052;SDS011;57398;52.032;4.376;2023-04-03T02:15:38;4.90;;;1.98;;
70052;SDS011;57398;52.032;4.376;2023-04-03T02:18:27;4.83;;;2.17;;
70052;SDS011;57398;52.032;4.376;2023-04-03T02:21:15;4.18;;;1.85;;
70052;SDS011;57398;52.032;4.376;2023-04-03T02:24:04;4.70;;;1.98;;
70052;SDS011;57398;52.032;4.376;2023-04-03T02:26:53;5.50;;;2.00;;
70052;SDS011;57398;52.032;4.376;2023-04-03T02:29:41;4.97;;;2.20;;
70052;SDS011;57398;52.032;4.376;2023-04-03T02:32:29;5.33;;;2.20;;
70052;SDS011;57398;52.032;4.376;2023-04-03T02:35:18;4.88;;;2.05;;
70052;SDS011;57398;52.032;4.376;2023-04-03T02:38:06;5.00;;;2.08;;
70052;SDS011;57398;52.032;4.376;2023-04-03T02:41:00;5.22;;;2.40;;
70052;SDS011;57398;52.032;4.376;2023-04-03T02:43:48;5.45;;;2.15;;
70052;SDS011;57398;52.032;4.376;2023-04-03T02:46:37;5.30;;;1.97;;
70052;SDS011;57398;52.032;4.376;2023-04-03T02:49:25;4.95;;;1.95;;
70052;SDS011;57398;52.032;4.376;2023-04-03T02:52:13;4.53;;;2.00;;
70052;SDS011;57398;52.032;4.376;2023-04-03T02:55:01;5.40;;;2.65;;
70052;SDS011;57398;52.032;4.376;2023-04-03T02:57:51;7.03;;;2.40;;
70052;SDS011;57398;52.032;4.376;2023-04-03T03:00:39;4.13;;;2.03;;
70052;SDS011;57398;52.032;4.376;2023-04-03T03:03:28;5.40;;;2.30;;
70052;SDS011;57398;52.032;4.376;2023-04-03T03:06:16;5.30;;;2.60;;
70052;SDS011;57398;52.032;4.376;2023-04-03T03:09:05;5.78;;;2.22;;
70052;SDS011;57398;52.032;4.376;2023-04-03T03:11:53;6.63;;;2.20;;
70052;SDS011;57398;52.032;4.376;2023-04-03T03:14:42;4.20;;;1.93;;
70052;SDS011;57398;52.032;4.376;2023-04-03T03:17:30;6.15;;;1.98;;
70052;SDS011;57398;52.032;4.376;2023-04-03T03:20:19;4.32;;;2.10;;
70052;SDS011;57398;52.032;4.376;2023-04-03T03:23:07;6.93;;;2.15;;
70052;SDS011;57398;52.032;4.376;2023-04-03T03:25:58;5.95;;;2.45;;
70052;SDS011;57398;52.032;4.376;2023-04-03T03:28:47;5.73;;;2.47;;
70052;SDS011;57398;52.032;4.376;2023-04-03T03:31:37;5.50;;;2.33;;
70052;SDS011;57398;52.032;4.376;2023-04-03T03:34:25;5.88;;;2.38;;
70052;SDS011;57398;52.032;4.376;2023-04-03T03:37:13;4.45;;;2.40;;
70052;SDS011;57398;52.032;4.376;2023-04-03T03:40:01;5.40;;;2.40;;
70052;SDS011;57398;52.032;4.376;2023-04-03T03:42:50;5.00;;;2.47;;
70052;SDS011;57398;52.032;4.376;2023-04-03T03:45:38;6.82;;;2.55;;
70052;SDS011;57398;52.032;4.376;2023-04-03T03:48:27;4.88;;;2.35;;
70052;SDS011;57398;52.032;4.376;2023-04-03T03:51:16;4.90;;;2.05;;
70052;SDS011;57398;52.032;4.376;2023-04-03T03:54:04;4.63;;;2.30;;
70052;SDS011;57398;52.032;4.376;2023-04-03T03:56:53;5.07;;;2.30;;
70052;SDS011;57398;52.032;4.376;2023-04-03T03:59:41;6.22;;;2.63;;
70052;SDS011;57398;52.032;4.376;2023-04-03T04:02:30;6.03;;;2.70;;
70052;SDS011;57398;52.032;4.376;2023-04-03T04:05:20;7.68;;;2.60;;
70052;SDS011;57398;52.032;4.376;2023-04-03T04:08:08;5.93;;;2.53;;
70052;SDS011;57398;52.032;4.376;2023-04-03T04:10:56;5.97;;;2.73;;
70052;SDS011;57398;52.032;4.376;2023-04-03T04:13:44;8.90;;;3.03;;
70052;SDS011;57398;52.032;4.376;2023-04-03T04:16:32;4.78;;;2.47;;
70052;SDS011;57398;52.032;4.376;2023-04-03T04:19:21;8.60;;;2.45;;
70052;SDS011;57398;52.032;4.376;2023-04-03T04:22:10;5.65;;;2.35;;
70052;SDS011;57398;52.032;4.376;2023-04-03T04:24:58;6.00;;;2.73;;
70052;SDS011;57398;52.032;4.376;2023-04-03T04:27:46;5.80;;;2.50;;
70052;SDS011;57398;52.032;4.376;2023-04-03T04:30:38;6.45;;;3.30;;
70052;SDS011;57398;52.032;4.376;2023-04-03T04:33:27;5.75;;;2.58;;
70052;SDS011;57398;52.032;4.376;2023-04-03T04:36:15;7.32;;;2.75;;
70052;SDS011;57398;52.032;4.376;2023-04-03T04:39:05;4.97;;;2.70;;
70052;SDS011;57398;52.032;4.376;2023-04-03T04:41:53;5.22;;;2.80;;
70052;SDS011;57398;52.032;4.376;2023-04-03T04:44:41;5.63;;;2.47;;
70052;SDS011;57398;52.032;4.376;2023-04-03T04:47:32;5.15;;;2.58;;
70052;SDS011;57398;52.032;4.376;2023-04-03T04:50:44;6.53;;;2.45;;
70052;SDS011;57398;52.032;4.376;2023-04-03T04:53:33;5.47;;;2.63;;
70052;SDS011;57398;52.032;4.376;2023-04-03T04:56:23;6.50;;;2.78;;
70052;SDS011;57398;52.032;4.376;2023-04-03T04:59:12;6.10;;;2.65;;
70052;SDS011;57398;52.032;4.376;2023-04-03T05:02:00;8.15;;;3.20;;
70052;SDS011;57398;52.032;4.376;2023-04-03T05:04:48;6.13;;;2.78;;
70052;SDS011;57398;52.032;4.376;2023-04-03T05:07:38;8.00;;;3.30;;
70052;SDS011;57398;52.032;4.376;2023-04-03T05:10:27;7.10;;;3.08;;
70052;SDS011;57398;52.032;4.376;2023-04-03T05:13:17;7.88;;;2.70;;
70052;SDS011;57398;52.032;4.376;2023-04-03T05:16:05;9.13;;;3.22;;
70052;SDS011;57398;52.032;4.376;2023-04-03T05:18:54;7.97;;;3.30;;
70052;SDS011;57398;52.032;4.376;2023-04-03T05:21:42;7.20;;;3.20;;
70052;SDS011;57398;52.032;4.376;2023-04-03T05:24:30;6.85;;;3.00;;
70052;SDS011;57398;52.032;4.376;2023-04-03T05:27:18;8.05;;;2.92;;
70052;SDS011;57398;52.032;4.376;2023-04-03T05:30:08;8.00;;;3.03;;
70052;SDS011;57398;52.032;4.376;2023-04-03T05:32:56;6.38;;;2.90;;
70052;SDS011;57398;52.032;4.376;2023-04-03T05:35:45;6.93;;;3.33;;
70052;SDS011;57398;52.032;4.376;2023-04-03T05:38:34;6.97;;;3.42;;
70052;SDS011;57398;52.032;4.376;2023-04-03T05:41:22;6.28;;;3.22;;
70052;SDS011;57398;52.032;4.376;2023-04-03T05:44:10;6.22;;;2.88;;
70052;SDS011;57398;52.032;4.376;2023-04-03T05:47:00;6.47;;;3.28;;
70052;SDS011;57398;52.032;4.376;2023-04-03T05:49:50;6.60;;;3.13;;
70052;SDS011;57398;52.032;4.376;2023-04-03T05:52:39;8.02;;;3.58;;
70052;SDS011;57398;52.032;4.376;2023-04-03T05:55:30;7.53;;;3.63;;
70052;SDS011;57398;52.032;4.376;2023-04-03T05:58:18;8.00;;;3.25;;
70052;SDS011;57398;52.032;4.376;2023-04-03T06:01:06;6.60;;;3.47;;
70052;SDS011;57398;52.032;4.376;2023-04-03T06:03:56;6.73;;;3.47;;
70052;SDS011;57398;52.032;4.376;2023-04-03T06:06:48;7.35;;;3.20;;
70052;SDS011;57398;52.032;4.376;2023-04-03T06:09:39;9.80;;;3.78;;
70052;SDS011;57398;52.032;4.376;2023-04-03T06:12:27;7.10;;;3.22;;
70052;SDS011;57398;52.032;4.376;2023-04-03T06:15:16;7.28;;;3.35;;
70052;SDS011;57398;52.032;4.376;2023-04-03T06:18:04;7.50;;;3.77;;
70052;SDS011;57398;52.032;4.376;2023-04-03T06:20:56;9.05;;;3.40;;
70052;SDS011;57398;52.032;4.376;2023-04-03T06:23:44;9.93;;;3.67;;
70052;SDS011;57398;52.032;4.376;2023-04-03T06:26:33;6.95;;;3.30;;
70052;SDS011;57398;52.032;4.376;2023-04-03T06:29:21;6.90;;;3.35;;
70052;SDS011;57398;52.032;4.376;2023-04-03T06:32:09;6.20;;;3.03;;
70052;SDS011;57398;52.032;4.376;2023-04-03T06:34:58;8.30;;;3.30;;
70052;SDS011;57398;52.032;4.376;2023-04-03T06:37:48;8.20;;;3.33;;
70052;SDS011;57398;52.032;4.376;2023-04-03T06:40:37;5.80;;;2.88;;
70052;SDS011;57398;52.032;4.376;2023-04-03T06:43:25;5.75;;;3.17;;
70052;SDS011;57398;52.032;4.376;2023-04-03T06:46:14;5.97;;;3.20;;
70052;SDS011;57398;52.032;4.376;2023-04-03T06:49:04;8.00;;;3.42;;
70052;SDS011;57398;52.032;4.376;2023-04-03T06:51:53;8.02;;;3.50;;
70052;SDS011;57398;52.032;4.376;2023-04-03T06:54:43;7.80;;;2.90;;
70052;SDS011;57398;52.032;4.376;2023-04-03T06:57:32;7.43;;;3.25;;
70052;SDS011;57398;52.032;4.376;2023-04-03T07:00:20;5.97;;;2.70;;
70052;SDS011;57398;52.032;4.376;2023-04-03T07:03:09;8.43;;;2.83;;
70052;SDS011;57398;52.032;4.376;2023-04-03T07:05:57;9.02;;;3.38;;
70052;SDS011;57398;52.032;4.376;2023-04-03T07:08:55;8.10;;;2.88;;
70052;SDS011;57398;52.032;4.376;2023-04-03T07:11:45;7.30;;;2.88;;
70052;SDS011;57398;52.032;4.376;2023-04-03T07:14:33;6.37;;;3.03;;
70052;SDS011;57398;52.032;4.376;2023-04-03T07:17:21;6.35;;;2.95;;
70052;SDS011;57398;52.032;4.376;2023-04-03T07:20:13;7.47;;;2.97;;
70052;SDS011;57398;52.032;4.376;2023-04-03T07:23:01;5.82;;;2.90;;
70052;SDS011;57398;52.032;4.376;2023-04-03T07:25:50;5.10;;;2.38;;
70052;SDS011;57398;52.032;4.376;2023-04-03T07:28:42;8.27;;;2.90;;
70052;SDS011;57398;52.032;4.376;2023-04-03T07:31:31;4.75;;;2.38;;
70052;SDS011;57398;52.032;4.376;2023-04-03T07:34:20;6.88;;;2.95;;
70052;SDS011;57398;52.032;4.376;2023-04-03T07:37:09;7.95;;;3.30;;
70052;SDS011;57398;52.032;4.376;2023-04-03T07:39:57;8.00;;;2.58;;
70052;SDS011;57398;52.032;4.376;2023-04-03T07:42:47;7.70;;;3.03;;
70052;SDS011;57398;52.032;4.376;2023-04-03T07:45:38;8.00;;;2.80;;
70052;SDS011;57398;52.032;4.376;2023-04-03T07:48:26;6.00;;;2.60;;
70052;SDS011;57398;52.032;4.376;2023-04-03T07:51:17;5.45;;;2.42;;
70052;SDS011;57398;52.032;4.376;2023-04-03T07:54:06;5.20;;;2.58;;
70052;SDS011;57398;52.032;4.376;2023-04-03T07:56:54;4.97;;;2.10;;
70052;SDS011;57398;52.032;4.376;2023-04-03T07:59:43;4.78;;;1.90;;
70052;SDS011;57398;52.032;4.376;2023-04-03T08:02:32;5.75;;;2.00;;
70052;SDS011;57398;52.032;4.376;2023-04-03T08:05:21;4.80;;;2.30;;
70052;SDS011;57398;52.032;4.376;2023-04-03T08:08:10;6.70;;;2.83;;
70052;SDS011;57398;52.032;4.376;2023-04-03T08:10:59;4.47;;;2.10;;
70052;SDS011;57398;52.032;4.376;2023-04-03T08:13:49;4.75;;;2.20;;
70052;SDS011;57398;52.032;4.376;2023-04-03T08:16:39;5.88;;;2.08;;
70052;SDS011;57398;52.032;4.376;2023-04-03T08:19:30;5.72;;;2.13;;
70052;SDS011;57398;52.032;4.376;2023-04-03T08:22:19;4.15;;;2.10;;
70052;SDS011;57398;52.032;4.376;2023-04-03T08:25:07;4.33;;;1.90;;
70052;SDS011;57398;52.032;4.376;2023-04-03T08:27:56;5.07;;;1.80;;
70052;SDS011;57398;52.032;4.376;2023-04-03T08:30:44;5.07;;;2.10;;
70052;SDS011;57398;52.032;4.376;2023-04-03T08:33:33;5.65;;;1.98;;
70052;SDS011;57398;52.032;4.376;2023-04-03T08:36:27;5.07;;;2.40;;
70052;SDS011;57398;52.032;4.376;2023-04-03T08:39:16;6.20;;;2.50;;
70052;SDS011;57398;52.032;4.376;2023-04-03T08:42:11;5.95;;;2.10;;
70052;SDS011;57398;52.032;4.376;2023-04-03T08:45:05;6.75;;;2.10;;
70052;SDS011;57398;52.032;4.376;2023-04-03T08:48:00;5.05;;;2.10;;
70052;SDS011;57398;52.032;4.376;2023-04-03T08:50:55;5.15;;;2.20;;
70052;SDS011;57398;52.032;4.376;2023-04-03T08:53:54;5.77;;;2.17;;
70052;SDS011;57398;52.032;4.376;2023-04-03T08:56:44;6.80;;;2.22;;
70052;SDS011;57398;52.032;4.376;2023-04-03T08:59:33;4.65;;;1.90;;
70052;SDS011;57398;52.032;4.376;2023-04-03T09:02:25;4.97;;;1.88;;
70052;SDS011;57398;52.032;4.376;2023-04-03T09:05:20;5.40;;;1.95;;
70052;SDS011;57398;52.032;4.376;2023-04-03T09:08:23;5.93;;;2.20;;
70052;SDS011;57398;52.032;4.376;2023-04-03T09:11:16;4.13;;;1.90;;
70052;SDS011;57398;52.032;4.376;2023-04-03T09:14:17;5.38;;;1.77;;
70052;SDS011;57398;52.032;4.376;2023-04-03T09:17:12;4.18;;;1.70;;
70052;SDS011;57398;52.032;4.376;2023-04-03T09:20:07;5.03;;;1.75;;
70052;SDS011;57398;52.032;4.376;2023-04-03T09:23:10;5.23;;;1.43;;
70052;SDS011;57398;52.032;4.376;2023-04-03T09:26:09;3.58;;;1.58;;
70052;SDS011;57398;52.032;4.376;2023-04-03T09:29:04;4.65;;;1.70;;
70052;SDS011;57398;52.032;4.376;2023-04-03T09:31:59;3.72;;;1.42;;
70052;SDS011;57398;52.032;4.376;2023-04-03T09:34:48;4.07;;;1.50;;
70052;SDS011;57398;52.032;4.376;2023-04-03T09:37:39;3.13;;;1.60;;
70052;SDS011;57398;52.032;4.376;2023-04-03T09:40:30;5.53;;;1.75;;
70052;SDS011;57398;52.032;4.376;2023-04-03T09:43:26;4.30;;;1.80;;
70052;SDS011;57398;52.032;4.376;2023-04-03T09:46:28;4.65;;;1.70;;
70052;SDS011;57398;52.032;4.376;2023-04-03T09:49:18;3.65;;;1.40;;
70052;SDS011;57398;52.032;4.376;2023-04-03T09:52:18;3.53;;;1.50;;
70052;SDS011;57398;52.032;4.376;2023-04-03T09:55:10;3.33;;;1.52;;
70052;SDS011;57398;52.032;4.376;2023-04-03T09:58:02;3.30;;;1.40;;
70052;SDS011;57398;52.032;4.376;2023-04-03T10:00:55;2.90;;;1.40;;
70052;SDS011;57398;52.032;4.376;2023-04-03T10:03:46;2.95;;;1.30;;
70052;SDS011;57398;52.032;4.376;2023-04-03T10:06:51;4.17;;;1.30;;
70052;SDS011;57398;52.032;4.376;2023-04-03T10:09:41;2.85;;;1.20;;
70052;SDS011;57398;52.032;4.376;2023-04-03T10:12:43;3.03;;;1.17;;
70052;SDS011;57398;52.032;4.376;2023-04-03T10:15:31;2.97;;;1.20;;
70052;SDS011;57398;52.032;4.376;2023-04-03T10:18:29;2.53;;;1.10;;
70052;SDS011;57398;52.032;4.376;2023-04-03T10:21:32;3.27;;;1.30;;
70052;SDS011;57398;52.032;4.376;2023-04-03T10:24:28;2.55;;;1.10;;
70052;SDS011;57398;52.032;4.376;2023-04-03T10:27:26;3.15;;;1.17;;
70052;SDS011;57398;52.032;4.376;2023-04-03T10:30:32;3.53;;;1.15;;
70052;SDS011;57398;52.032;4.376;2023-04-03T10:33:30;3.15;;;1.00;;
70052;SDS011;57398;52.032;4.376;2023-04-03T10:36:32;3.93;;;1.23;;
70052;SDS011;57398;52.032;4.376;2023-04-03T10:39:27;4.38;;;1.40;;
70052;SDS011;57398;52.032;4.376;2023-04-03T10:42:24;2.40;;;1.05;;
70052;SDS011;57398;52.032;4.376;2023-04-03T10:45:19;4.00;;;1.20;;
70052;SDS011;57398;52.032;4.376;2023-04-03T10:48:13;2.88;;;1.20;;
70052;SDS011;57398;52.032;4.376;2023-04-03T10:51:12;3.23;;;1.10;;
70052;SDS011;57398;52.032;4.376;2023-04-03T10:54:10;3.90;;;1.20;;
70052;SDS011;57398;52.032;4.376;2023-04-03T10:57:05;3.95;;;1.20;;
70052;SDS011;57398;52.032;4.376;2023-04-03T10:59:59;4.03;;;1.20;;
70052;SDS011;57398;52.032;4.376;2023-04-03T11:02:56;2.80;;;1.20;;
70052;SDS011;57398;52.032;4.376;2023-04-03T11:05:48;3.17;;;1.10;;
70052;SDS011;57398;52.032;4.376;2023-04-03T11:08:42;2.67;;;1.30;;
70052;SDS011;57398;52.032;4.376;2023-04-03T11:11:35;3.03;;;1.20;;
70052;SDS011;57398;52.032;4.376;2023-04-03T11:14:26;4.80;;;1.20;;
70052;SDS011;57398;52.032;4.376;2023-04-03T11:17:20;3.95;;;1.20;;
70052;SDS011;57398;52.032;4.376;2023-04-03T11:20:17;3.53;;;1.30;;
70052;SDS011;57398;52.032;4.376;2023-04-03T11:23:09;2.72;;;1.05;;
70052;SDS011;57398;52.032;4.376;2023-04-03T11:26:08;4.28;;;1.20;;
70052;SDS011;57398;52.032;4.376;2023-04-03T11:29:04;3.35;;;1.20;;
70052;SDS011;57398;52.032;4.376;2023-04-03T11:32:03;2.90;;;1.10;;
70052;SDS011;57398;52.032;4.376;2023-04-03T11:35:00;2.43;;;0.73;;
70052;SDS011;57398;52.032;4.376;2023-04-03T11:37:56;2.70;;;1.00;;
70052;SDS011;57398;52.032;4.376;2023-04-03T11:40:47;2.88;;;1.00;;
70052;SDS011;57398;52.032;4.376;2023-04-03T11:43:39;3.13;;;1.05;;
70052;SDS011;57398;52.032;4.376;2023-04-03T11:49:53;2.60;;;1.20;;
70052;SDS011;57398;52.032;4.376;2023-04-03T11:53:00;2.22;;;1.00;;
70052;SDS011;57398;52.032;4.376;2023-04-03T11:56:28;3.55;;;1.00;;
70052;SDS011;57398;52.032;4.376;2023-04-03T11:59:22;2.70;;;1.10;;
70052;SDS011;57398;52.032;4.376;2023-04-03T12:05:29;3.43;;;1.27;;
70052;SDS011;57398;52.032;4.376;2023-04-03T12:08:24;2.30;;;1.00;;
70052;SDS011;57398;52.032;4.376;2023-04-03T12:11:14;2.40;;;0.95;;
70052;SDS011;57398;52.032;4.376;2023-04-03T12:14:12;2.10;;;1.10;;
70052;SDS011;57398;52.032;4.376;2023-04-03T12:17:11;3.35;;;1.10;;
70052;SDS011;57398;52.032;4.376;2023-04-03T12:23:58;2.47;;;1.05;;
70052;SDS011;57398;52.032;4.376;2023-04-03T12:26:51;2.15;;;0.90;;
70052;SDS011;57398;52.032;4.376;2023-04-03T12:29:52;2.33;;;0.80;;
70052;SDS011;57398;52.032;4.376;2023-04-03T12:32:48;2.10;;;0.70;;
70052;SDS011;57398;52.032;4.376;2023-04-03T12:36:02;2.60;;;0.80;;
70052;SDS011;57398;52.032;4.376;2023-04-03T12:39:06;1.95;;;0.80;;
70052;SDS011;57398;52.032;4.376;2023-04-03T12:42:05;2.08;;;0.82;;
70052;SDS011;57398;52.032;4.376;2023-04-03T12:45:08;2.03;;;0.80;;
70052;SDS011;57398;52.032;4.376;2023-04-03T12:48:05;2.67;;;0.90;;
70052;SDS011;57398;52.032;4.376;2023-04-03T12:51:03;2.33;;;0.90;;
70052;SDS011;57398;52.032;4.376;2023-04-03T12:53:56;2.17;;;0.80;;
70052;SDS011;57398;52.032;4.376;2023-04-03T12:56:50;3.47;;;0.80;;
70052;SDS011;57398;52.032;4.376;2023-04-03T12:59:38;2.95;;;0.90;;
70052;SDS011;57398;52.032;4.376;2023-04-03T13:02:28;2.42;;;0.80;;
70052;SDS011;57398;52.032;4.376;2023-04-03T13:05:18;3.83;;;1.03;;
70052;SDS011;57398;52.032;4.376;2023-04-03T13:08:10;2.58;;;1.10;;
70052;SDS011;57398;52.032;4.376;2023-04-03T13:11:04;3.42;;;1.10;;
70052;SDS011;57398;52.032;4.376;2023-04-03T13:14:12;2.80;;;1.10;;
70052;SDS011;57398;52.032;4.376;2023-04-03T13:17:03;2.63;;;1.00;;
70052;SDS011;57398;52.032;4.376;2023-04-03T13:20:09;2.50;;;0.90;;
70052;SDS011;57398;52.032;4.376;2023-04-03T13:23:00;5.32;;;1.25;;
70052;SDS011;57398;52.032;4.376;2023-04-03T13:25:51;3.30;;;0.80;;
70052;SDS011;57398;52.032;4.376;2023-04-03T13:28:40;4.45;;;0.80;;
70052;SDS011;57398;52.032;4.376;2023-04-03T13:31:32;2.97;;;1.00;;
70052;SDS011;57398;52.032;4.376;2023-04-03T13:34:22;3.97;;;1.10;;
70052;SDS011;57398;52.032;4.376;2023-04-03T13:37:19;3.55;;;0.90;;
70052;SDS011;57398;52.032;4.376;2023-04-03T13:40:10;2.88;;;1.00;;
70052;SDS011;57398;52.032;4.376;2023-04-03T13:43:03;4.72;;;1.23;;
70052;SDS011;57398;52.032;4.376;2023-04-03T13:45:55;2.25;;;1.00;;
70052;SDS011;57398;52.032;4.376;2023-04-03T13:55:20;3.45;;;1.30;;
70052;SDS011;57398;52.032;4.376;2023-04-03T13:58:20;3.05;;;1.20;;
70052;SDS011;57398;52.032;4.376;2023-04-03T14:01:11;3.28;;;1.15;;
70052;SDS011;57398;52.032;4.376;2023-04-03T14:04:12;3.77;;;1.23;;
70052;SDS011;57398;52.032;4.376;2023-04-03T14:07:05;3.38;;;1.05;;
70052;SDS011;57398;52.032;4.376;2023-04-03T14:09:55;3.90;;;1.48;;
70052;SDS011;57398;52.032;4.376;2023-04-03T14:12:44;2.78;;;1.35;;
70052;SDS011;57398;52.032;4.376;2023-04-03T14:15:38;2.90;;;1.33;;
70052;SDS011;57398;52.032;4.376;2023-04-03T14:18:26;4.13;;;1.50;;
70052;SDS011;57398;52.032;4.376;2023-04-03T14:21:16;2.60;;;1.17;;
70052;SDS011;57398;52.032;4.376;2023-04-03T14:24:07;4.60;;;1.30;;
70052;SDS011;57398;52.032;4.376;2023-04-03T14:26:58;5.70;;;1.35;;
70052;SDS011;57398;52.032;4.376;2023-04-03T14:29:47;3.55;;;1.20;;
70052;SDS011;57398;52.032;4.376;2023-04-03T14:32:40;3.37;;;1.07;;
70052;SDS011;57398;52.032;4.376;2023-04-03T14:35:31;3.15;;;1.10;;
70052;SDS011;57398;52.032;4.376;2023-04-03T14:38:21;3.13;;;1.10;;
70052;SDS011;57398;52.032;4.376;2023-04-03T14:41:17;2.88;;;1.00;;
70052;SDS011;57398;52.032;4.376;2023-04-03T14:44:07;3.63;;;1.02;;
70052;SDS011;57398;52.032;4.376;2023-04-03T14:46:55;3.60;;;1.00;;
70052;SDS011;57398;52.032;4.376;2023-04-03T14:49:43;3.58;;;1.20;;
70052;SDS011;57398;52.032;4.376;2023-04-03T14:52:35;2.75;;;1.00;;
70052;SDS011;57398;52.032;4.376;2023-04-03T14:55:25;3.00;;;1.00;;
70052;SDS011;57398;52.032;4.376;2023-04-03T14:58:20;4.57;;;0.98;;
70052;SDS011;57398;52.032;4.376;2023-04-03T15:01:09;5.73;;;1.17;;
70052;SDS011;57398;52.032;4.376;2023-04-03T15:03:58;4.47;;;1.30;;
70052;SDS011;57398;52.032;4.376;2023-04-03T15:06:53;4.13;;;1.00;;
70052;SDS011;57398;52.032;4.376;2023-04-03T15:09:55;3.45;;;1.10;;
70052;SDS011;57398;52.032;4.376;2023-04-03T15:12:45;3.55;;;0.80;;
70052;SDS011;57398;52.032;4.376;2023-04-03T15:15:35;4.43;;;1.10;;
70052;SDS011;57398;52.032;4.376;2023-04-03T15:18:26;2.85;;;0.90;;
70052;SDS011;57398;52.032;4.376;2023-04-03T15:21:19;3.47;;;1.33;;
70052;SDS011;57398;52.032;4.376;2023-04-03T15:24:32;5.13;;;1.67;;
70052;SDS011;57398;52.032;4.376;2023-04-03T15:27:40;4.15;;;1.17;;
70052;SDS011;57398;52.032;4.376;2023-04-03T15:30:31;2.93;;;1.30;;
70052;SDS011;57398;52.032;4.376;2023-04-03T15:33:21;3.38;;;1.20;;
70052;SDS011;57398;52.032;4.376;2023-04-03T15:36:09;2.58;;;1.10;;
70052;SDS011;57398;52.032;4.376;2023-04-03T15:39:02;3.40;;;1.40;;
70052;SDS011;57398;52.032;4.376;2023-04-03T15:41:51;4.38;;;1.38;;
70052;SDS011;57398;52.032;4.376;2023-04-03T15:44:41;4.10;;;1.40;;
70052;SDS011;57398;52.032;4.376;2023-04-03T15:47:29;4.00;;;1.50;;
70052;SDS011;57398;52.032;4.376;2023-04-03T15:50:19;4.07;;;1.30;;
70052;SDS011;57398;52.032;4.376;2023-04-03T15:53:10;4.40;;;1.20;;
70052;SDS011;57398;52.032;4.376;2023-04-03T15:55:58;4.03;;;1.25;;
70052;SDS011;57398;52.032;4.376;2023-04-03T15:58:46;3.67;;;1.40;;
70052;SDS011;57398;52.032;4.376;2023-04-03T16:01:35;3.30;;;1.33;;
70052;SDS011;57398;52.032;4.376;2023-04-03T16:04:25;3.63;;;1.40;;
70052;SDS011;57398;52.032;4.376;2023-04-03T16:07:17;3.83;;;1.30;;
70052;SDS011;57398;52.032;4.376;2023-04-03T16:10:06;4.45;;;1.40;;
70052;SDS011;57398;52.032;4.376;2023-04-03T16:12:56;5.00;;;1.30;;
70052;SDS011;57398;52.032;4.376;2023-04-03T16:15:44;4.03;;;1.50;;
70052;SDS011;57398;52.032;4.376;2023-04-03T16:18:35;3.33;;;1.30;;
70052;SDS011;57398;52.032;4.376;2023-04-03T16:21:23;3.08;;;1.20;;
70052;SDS011;57398;52.032;4.376;2023-04-03T16:24:13;3.90;;;1.30;;
70052;SDS011;57398;52.032;4.376;2023-04-03T16:27:04;4.20;;;1.50;;
70052;SDS011;57398;52.032;4.376;2023-04-03T16:29:53;4.22;;;1.70;;
70052;SDS011;57398;52.032;4.376;2023-04-03T16:32:41;3.97;;;1.40;;
70052;SDS011;57398;52.032;4.376;2023-04-03T16:35:30;3.75;;;1.50;;
70052;SDS011;57398;52.032;4.376;2023-04-03T16:38:19;2.70;;;1.13;;
70052;SDS011;57398;52.032;4.376;2023-04-03T16:41:10;3.33;;;1.40;;
70052;SDS011;57398;52.032;4.376;2023-04-03T16:43:58;3.83;;;1.30;;
70052;SDS011;57398;52.032;4.376;2023-04-03T16:46:46;3.80;;;1.23;;
70052;SDS011;57398;52.032;4.376;2023-04-03T16:49:34;3.55;;;1.40;;
70052;SDS011;57398;52.032;4.376;2023-04-03T16:52:23;4.25;;;1.40;;
70052;SDS011;57398;52.032;4.376;2023-04-03T16:55:17;3.33;;;1.40;;
70052;SDS011;57398;52.032;4.376;2023-04-03T16:58:08;3.60;;;1.30;;
70052;SDS011;57398;52.032;4.376;2023-04-03T17:00:57;5.30;;;1.35;;
70052;SDS011;57398;52.032;4.376;2023-04-03T17:03:45;3.80;;;1.38;;
70052;SDS011;57398;52.032;4.376;2023-04-03T17:06:33;3.95;;;1.50;;
70052;SDS011;57398;52.032;4.376;2023-04-03T17:09:22;4.20;;;1.53;;
70052;SDS011;57398;52.032;4.376;2023-04-03T17:12:10;4.00;;;2.00;;
70052;SDS011;57398;52.032;4.376;2023-04-03T17:15:02;4.32;;;1.30;;
70052;SDS011;57398;52.032;4.376;2023-04-03T17:17:51;3.28;;;1.20;;
70052;SDS011;57398;52.032;4.376;2023-04-03T17:20:43;3.85;;;1.50;;
70052;SDS011;57398;52.032;4.376;2023-04-03T17:23:31;5.07;;;1.33;;
70052;SDS011;57398;52.032;4.376;2023-04-03T17:26:21;5.07;;;1.50;;
70052;SDS011;57398;52.032;4.376;2023-04-03T17:29:09;3.47;;;1.42;;
70052;SDS011;57398;52.032;4.376;2023-04-03T17:32:02;3.45;;;1.33;;
70052;SDS011;57398;52.032;4.376;2023-04-03T17:34:50;3.90;;;1.35;;